Time,TemperatureF,DewpointF,PressureIn,WindDirection,WindDirectionDegrees,WindSpeedMPH,WindSpeedGustMPH,Humidity,HourlyPrecipIn,Conditions,Clouds,dailyrainin,SolarRadiationWatts/m^2,SoftwareType,DateUTC
2013-04-15 00:01:00,73.2,66.0,-100.00,SW,225,1.0,2.0,78,0.00,,,0.00,994.0,meteohub,2013-04-15 10:01:00,
2013-04-15 00:06:00,73.2,66.4,-100.00,SW,225,1.0,2.0,79,0.00,,,0.00,994.0,meteohub,2013-04-15 10:06:00,
2013-04-15 00:11:00,72.7,66.2,-100.00,SW,225,2.0,2.0,80,0.00,,,0.00,994.0,meteohub,2013-04-15 10:11:00,
2013-04-15 00:17:00,72.3,65.8,-100.00,SW,225,2.0,2.0,80,0.00,,,0.00,994.0,meteohub,2013-04-15 10:17:00,
2013-04-15 00:22:00,72.0,65.8,-100.00,SW,225,2.0,2.0,81,0.00,,,0.00,994.0,meteohub,2013-04-15 10:22:00,
2013-04-15 00:27:00,71.8,66.0,-100.00,SW,225,2.0,3.0,82,0.00,,,0.00,994.0,meteohub,2013-04-15 10:27:00,
2013-04-15 00:32:00,71.8,66.0,-100.00,SW,225,2.0,3.0,82,0.00,,,0.00,994.0,meteohub,2013-04-15 10:32:00,
2013-04-15 00:38:00,72.0,66.2,-100.00,SW,225,1.0,3.0,82,0.00,,,0.00,994.0,meteohub,2013-04-15 10:38:00,
2013-04-15 00:43:00,72.0,66.2,-100.00,SW,225,3.0,3.0,82,0.00,,,0.00,994.0,meteohub,2013-04-15 10:43:00,
2013-04-15 00:48:00,72.0,66.2,-100.00,SW,225,2.0,3.0,82,0.00,,,0.00,994.0,meteohub,2013-04-15 10:48:00,
2013-04-15 00:53:00,71.8,66.0,-100.00,SW,225,2.0,3.0,82,0.00,,,0.00,994.0,meteohub,2013-04-15 10:53:00,
2013-04-15 00:59:00,71.8,66.0,-100.00,SW,225,2.0,3.0,82,0.00,,,0.00,994.0,meteohub,2013-04-15 10:59:00,
2013-04-15 01:04:00,71.8,66.0,-100.00,SW,225,2.0,2.0,82,0.00,,,0.00,994.0,meteohub,2013-04-15 11:04:00,
2013-04-15 01:09:00,71.8,66.0,-100.00,SW,225,2.0,2.0,82,0.00,,,0.00,994.0,meteohub,2013-04-15 11:09:00,
2013-04-15 01:14:00,72.0,66.2,-100.00,SW,225,2.0,2.0,82,0.00,,,0.00,994.0,meteohub,2013-04-15 11:14:00,
2013-04-15 01:19:00,72.0,66.2,-100.00,SW,225,2.0,2.0,82,0.00,,,0.00,994.0,meteohub,2013-04-15 11:19:00,
2013-04-15 01:24:00,72.0,65.8,-100.00,SW,225,2.0,2.0,81,0.00,,,0.00,994.0,meteohub,2013-04-15 11:24:00,
2013-04-15 01:29:00,72.0,65.8,-100.00,SW,225,2.0,2.0,81,0.00,,,0.00,994.0,meteohub,2013-04-15 11:29:00,
2013-04-15 01:34:00,72.0,65.8,-100.00,SW,225,2.0,2.0,81,0.00,,,0.00,994.0,meteohub,2013-04-15 11:34:00,
2013-04-15 01:40:00,72.0,65.8,-100.00,SW,225,1.0,3.0,81,0.00,,,0.00,994.0,meteohub,2013-04-15 11:40:00,
2013-04-15 01:45:00,72.0,66.2,-100.00,SW,225,0.0,3.0,82,0.00,,,0.00,994.0,meteohub,2013-04-15 11:45:00,
2013-04-15 01:50:00,71.8,66.0,-100.00,SW,225,2.0,2.0,82,0.00,,,0.00,994.0,meteohub,2013-04-15 11:50:00,
2013-04-15 01:56:00,71.6,66.2,-100.00,SW,225,1.0,2.0,83,0.00,,,0.00,994.0,meteohub,2013-04-15 11:56:00,
2013-04-15 02:01:00,71.4,66.0,-100.00,SW,225,0.0,2.0,83,0.00,,,0.00,994.0,meteohub,2013-04-15 12:01:00,
2013-04-15 02:06:00,71.1,65.7,-100.00,SW,225,0.0,2.0,83,0.00,,,0.00,994.0,meteohub,2013-04-15 12:06:00,
2013-04-15 02:12:00,71.1,66.0,-100.00,SW,225,0.0,1.0,84,0.00,,,0.00,994.0,meteohub,2013-04-15 12:12:00,
2013-04-15 02:17:00,70.9,65.8,-100.00,SW,225,0.0,0.0,84,0.00,,,0.00,994.0,meteohub,2013-04-15 12:17:00,
2013-04-15 02:22:00,70.7,65.7,-100.00,SW,225,2.0,0.0,84,0.00,,,0.00,994.0,meteohub,2013-04-15 12:22:00,
2013-04-15 02:27:00,70.7,66.0,-100.00,SW,225,2.0,2.0,85,0.00,,,0.00,994.0,meteohub,2013-04-15 12:27:00,
2013-04-15 02:33:00,70.9,66.2,-100.00,SW,225,2.0,2.0,85,0.00,,,0.00,994.0,meteohub,2013-04-15 12:33:00,
2013-04-15 02:38:00,71.1,66.4,-100.00,SW,225,2.0,2.0,85,0.00,,,0.00,994.0,meteohub,2013-04-15 12:38:00,
2013-04-15 02:43:00,71.1,66.4,-100.00,SW,225,2.0,2.0,85,0.00,,,0.00,994.0,meteohub,2013-04-15 12:43:00,
2013-04-15 02:49:00,71.1,66.4,-100.00,SW,225,2.0,2.0,85,0.00,,,0.00,994.0,meteohub,2013-04-15 12:49:00,
2013-04-15 02:54:00,71.2,66.6,-100.00,SW,225,2.0,2.0,85,0.00,,,0.00,994.0,meteohub,2013-04-15 12:54:00,
2013-04-15 02:59:00,71.4,66.7,-100.00,SW,225,1.0,2.0,85,0.00,,,0.00,994.0,meteohub,2013-04-15 12:59:00,
2013-04-15 03:04:00,71.6,66.9,-100.00,SW,225,2.0,2.0,85,0.00,,,0.00,994.0,meteohub,2013-04-15 13:04:00,
2013-04-15 03:09:00,71.8,67.1,-100.00,SW,225,2.0,2.0,85,0.00,,,0.00,994.0,meteohub,2013-04-15 13:09:00,
2013-04-15 03:15:00,71.8,67.1,-100.00,SW,225,2.0,2.0,85,0.00,,,0.00,994.0,meteohub,2013-04-15 13:15:00,
2013-04-15 03:20:00,71.8,67.1,-100.00,SW,225,2.0,2.0,85,0.00,,,0.00,994.0,meteohub,2013-04-15 13:20:00,
2013-04-15 03:25:00,71.8,67.1,-100.00,SW,225,2.0,2.0,85,0.00,,,0.00,994.0,meteohub,2013-04-15 13:25:00,
2013-04-15 03:30:00,71.6,66.9,-100.00,SW,225,2.0,2.0,85,0.00,,,0.00,994.0,meteohub,2013-04-15 13:30:00,
2013-04-15 03:36:00,71.6,67.1,-100.00,SW,225,2.0,2.0,86,0.00,,,0.00,994.0,meteohub,2013-04-15 13:36:00,
2013-04-15 03:41:00,71.6,67.1,-100.00,SW,225,1.0,2.0,86,0.00,,,0.00,994.0,meteohub,2013-04-15 13:41:00,
2013-04-15 03:46:00,71.6,67.1,-100.00,SW,225,2.0,2.0,86,0.00,,,0.00,994.0,meteohub,2013-04-15 13:46:00,
2013-04-15 03:52:00,71.4,67.1,-100.00,SW,225,2.0,2.0,86,0.00,,,0.00,994.0,meteohub,2013-04-15 13:52:00,
2013-04-15 03:57:00,71.4,67.1,-100.00,SW,225,2.0,2.0,86,0.00,,,0.00,994.0,meteohub,2013-04-15 13:57:00,
2013-04-15 04:03:00,71.4,67.1,-100.00,SW,225,2.0,2.0,86,0.00,,,0.00,994.0,meteohub,2013-04-15 14:03:00,
2013-04-15 04:08:00,71.2,66.9,-100.00,SW,225,2.0,2.0,86,0.00,,,0.00,995.0,meteohub,2013-04-15 14:08:00,
2013-04-15 04:13:00,71.2,67.1,-100.00,SW,225,2.0,2.0,87,0.00,,,0.00,995.0,meteohub,2013-04-15 14:13:00,
2013-04-15 04:19:00,71.2,67.1,-100.00,SW,225,2.0,2.0,87,0.00,,,0.00,995.0,meteohub,2013-04-15 14:19:00,
2013-04-15 04:24:00,71.2,67.1,-100.00,SW,225,2.0,2.0,87,0.00,,,0.00,995.0,meteohub,2013-04-15 14:24:00,
2013-04-15 04:29:00,71.2,67.1,-100.00,SW,225,2.0,2.0,87,0.00,,,0.00,995.0,meteohub,2013-04-15 14:29:00,
2013-04-15 04:35:00,71.2,67.1,-100.00,SW,225,2.0,3.0,87,0.00,,,0.00,958.0,meteohub,2013-04-15 14:35:00,
2013-04-15 04:40:00,71.2,67.1,-100.00,SW,225,2.0,3.0,87,0.00,,,0.00,958.0,meteohub,2013-04-15 14:40:00,
2013-04-15 04:45:00,71.4,67.6,-100.00,SW,225,2.0,3.0,88,0.00,,,0.00,958.0,meteohub,2013-04-15 14:45:00,
2013-04-15 04:50:00,71.4,67.6,-100.00,SW,225,2.0,2.0,88,0.00,,,0.00,958.0,meteohub,2013-04-15 14:50:00,
2013-04-15 04:55:00,71.2,67.5,-100.00,SW,225,2.0,3.0,88,0.00,,,0.00,958.0,meteohub,2013-04-15 14:55:00,
2013-04-15 05:00:00,71.2,67.5,-100.00,SW,225,1.0,3.0,88,0.00,,,0.00,958.0,meteohub,2013-04-15 15:00:00,
2013-04-15 05:06:00,71.2,67.5,-100.00,SW,225,2.0,3.0,88,0.00,,,0.00,958.0,meteohub,2013-04-15 15:06:00,
2013-04-15 05:11:00,71.2,67.8,-100.00,SW,225,2.0,2.0,89,0.00,,,0.00,958.0,meteohub,2013-04-15 15:11:00,
2013-04-15 05:16:00,71.2,67.8,-100.00,SW,225,2.0,2.0,89,0.00,,,0.00,958.0,meteohub,2013-04-15 15:16:00,
2013-04-15 05:21:00,71.2,67.8,-100.00,SW,225,2.0,2.0,89,0.00,,,0.00,958.0,meteohub,2013-04-15 15:21:00,
2013-04-15 05:27:00,71.2,67.8,-100.00,SW,225,2.0,2.0,89,0.00,,,0.00,958.0,meteohub,2013-04-15 15:27:00,
2013-04-15 05:32:00,71.2,67.8,-100.00,SW,225,2.0,3.0,89,0.00,,,0.00,958.0,meteohub,2013-04-15 15:32:00,
2013-04-15 05:37:00,71.2,67.8,-100.00,SW,225,2.0,3.0,89,0.00,,,0.00,958.0,meteohub,2013-04-15 15:37:00,
2013-04-15 05:42:00,71.2,67.5,-100.00,SW,225,2.0,3.0,88,0.00,,,0.00,958.0,meteohub,2013-04-15 15:42:00,
2013-04-15 05:47:00,71.2,67.5,-100.00,SW,225,2.0,3.0,88,0.00,,,0.00,958.0,meteohub,2013-04-15 15:47:00,
2013-04-15 05:52:00,71.2,67.5,-100.00,SW,225,2.0,3.0,88,0.00,,,0.00,958.0,meteohub,2013-04-15 15:52:00,
2013-04-15 05:57:00,71.2,67.5,-100.00,SW,225,2.0,3.0,88,0.00,,,0.00,958.0,meteohub,2013-04-15 15:57:00,
2013-04-15 06:03:00,71.1,66.9,-100.00,SW,225,2.0,2.0,87,0.00,,,0.00,958.0,meteohub,2013-04-15 16:03:00,
2013-04-15 06:08:00,71.1,66.9,-100.00,SW,225,2.0,2.0,87,0.00,,,0.00,958.0,meteohub,2013-04-15 16:08:00,
2013-04-15 06:14:00,71.1,66.9,-100.00,SW,225,2.0,2.0,87,0.00,,,0.00,958.0,meteohub,2013-04-15 16:14:00,
2013-04-15 06:19:00,71.1,66.9,-100.00,SW,225,2.0,3.0,87,0.00,,,0.00,958.0,meteohub,2013-04-15 16:19:00,
2013-04-15 06:24:00,71.1,66.9,-100.00,SW,225,2.0,3.0,87,0.00,,,0.00,958.0,meteohub,2013-04-15 16:24:00,
2013-04-15 06:29:00,71.2,67.1,-100.00,SW,225,2.0,3.0,87,0.00,,,0.00,958.0,meteohub,2013-04-15 16:29:00,
2013-04-15 06:35:00,71.2,67.1,-100.00,SW,225,2.0,2.0,87,0.00,,,0.00,958.0,meteohub,2013-04-15 16:35:00,
2013-04-15 06:40:00,71.4,67.3,-100.00,SW,225,2.0,2.0,87,0.00,,,0.00,958.0,meteohub,2013-04-15 16:40:00,
2013-04-15 06:46:00,71.6,67.1,-100.00,SW,225,2.0,3.0,86,0.00,,,0.00,958.0,meteohub,2013-04-15 16:46:00,
2013-04-15 06:51:00,71.8,67.3,-100.00,SW,225,2.0,3.0,86,0.00,,,0.00,958.0,meteohub,2013-04-15 16:51:00,
2013-04-15 06:56:00,72.0,67.5,-100.00,SW,225,3.0,3.0,86,0.00,,,0.00,958.0,meteohub,2013-04-15 16:56:00,
2013-04-15 07:01:00,72.1,67.6,-100.00,SW,225,1.0,3.0,86,0.00,,,0.00,958.0,meteohub,2013-04-15 17:01:00,
2013-04-15 07:06:00,72.3,67.8,-100.00,SW,225,0.0,3.0,86,0.00,,,0.00,958.0,meteohub,2013-04-15 17:06:00,
2013-04-15 07:11:00,72.5,68.0,-100.00,NE,45,1.0,3.0,86,0.00,,,0.00,958.0,meteohub,2013-04-15 17:11:00,
2013-04-15 07:17:00,72.9,68.4,-100.00,ENE,68,2.0,2.0,86,0.00,,,0.00,958.0,meteohub,2013-04-15 17:17:00,
2013-04-15 07:21:00,73.0,68.5,-100.00,NE,45,2.0,2.0,86,0.00,,,0.00,958.0,meteohub,2013-04-15 17:21:00,
2013-04-15 07:22:00,73.0,68.5,-100.00,North,0,2.0,2.0,86,0.00,,,0.00,958.0,meteohub,2013-04-15 17:22:00,
2013-04-15 07:27:00,73.4,69.3,-100.00,NE,45,2.0,2.0,87,0.00,,,0.00,958.0,meteohub,2013-04-15 17:27:00,
2013-04-15 07:28:00,73.4,69.3,-100.00,North,0,2.0,2.0,87,0.00,,,0.00,958.0,meteohub,2013-04-15 17:28:00,
2013-04-15 07:33:00,73.9,69.8,-100.00,North,0,3.0,3.0,87,0.00,,,0.00,958.0,meteohub,2013-04-15 17:33:00,
2013-04-15 07:38:00,74.3,70.2,-100.00,NW,315,2.0,3.0,87,0.00,,,0.00,958.0,meteohub,2013-04-15 17:38:00,
2013-04-15 07:44:00,74.7,70.5,-100.00,North,0,2.0,3.0,87,0.00,,,0.00,958.0,meteohub,2013-04-15 17:44:00,
2013-04-15 07:49:00,75.0,70.5,-100.00,NE,45,4.0,4.0,86,0.00,,,0.00,958.0,meteohub,2013-04-15 17:49:00,
2013-04-15 07:54:00,75.2,70.7,-100.00,North,0,4.0,4.0,86,0.00,,,0.00,958.0,meteohub,2013-04-15 17:54:00,
2013-04-15 07:59:00,75.4,70.9,-100.00,NW,315,2.0,4.0,86,0.00,,,0.00,958.0,meteohub,2013-04-15 17:59:00,
2013-04-15 08:05:00,75.4,70.9,-100.00,NE,45,2.0,4.0,86,0.00,,,0.00,958.0,meteohub,2013-04-15 18:05:00,
2013-04-15 08:10:00,75.6,71.1,-100.00,NE,45,3.0,4.0,86,0.00,,,0.00,958.0,meteohub,2013-04-15 18:10:00,
2013-04-15 08:15:00,75.7,71.2,-100.00,North,0,3.0,4.0,86,0.00,,,0.00,958.0,meteohub,2013-04-15 18:15:00,
2013-04-15 08:21:00,75.9,71.1,-100.00,North,0,2.0,4.0,85,0.00,,,0.00,958.0,meteohub,2013-04-15 18:21:00,
2013-04-15 08:27:00,76.5,71.6,-100.00,North,0,2.0,4.0,85,0.00,,,0.00,958.0,meteohub,2013-04-15 18:27:00,
2013-04-15 08:29:00,76.6,71.8,-100.00,North,0,4.0,4.0,85,0.00,,,0.00,958.0,meteohub,2013-04-15 18:29:00,
2013-04-15 08:30:00,76.6,71.4,-100.00,NE,45,4.0,4.0,84,0.00,,,0.00,958.0,meteohub,2013-04-15 18:30:00,
2013-04-15 08:32:00,76.8,71.6,-100.00,North,0,3.0,4.0,84,0.00,,,0.00,958.0,meteohub,2013-04-15 18:32:00,
2013-04-15 08:37:00,77.0,71.4,-100.00,North,0,5.0,5.0,83,0.00,,,0.00,958.0,meteohub,2013-04-15 18:37:00,
2013-04-15 08:42:00,77.4,71.4,-100.00,NE,45,3.0,5.0,82,0.00,,,0.00,958.0,meteohub,2013-04-15 18:42:00,
2013-04-15 08:48:00,77.9,71.6,-100.00,NW,315,3.0,5.0,81,0.00,,,0.00,958.0,meteohub,2013-04-15 18:48:00,
2013-04-15 08:53:00,78.3,72.0,-100.00,East,90,4.0,5.0,81,0.00,,,0.00,958.0,meteohub,2013-04-15 18:53:00,
2013-04-15 08:58:00,78.1,71.1,-100.00,North,0,5.0,5.0,79,0.00,,,0.00,958.0,meteohub,2013-04-15 18:58:00,
2013-04-15 09:03:00,77.9,71.2,-100.00,NE,45,4.0,6.0,80,0.00,,,0.00,959.0,meteohub,2013-04-15 19:03:00,
2013-04-15 09:08:00,78.3,71.6,-100.00,NE,45,3.0,6.0,80,0.00,,,0.00,959.0,meteohub,2013-04-15 19:08:00,
2013-04-15 09:13:00,78.3,70.9,-100.00,North,0,5.0,7.0,78,0.00,,,0.00,959.0,meteohub,2013-04-15 19:13:00,
2013-04-15 09:18:00,78.3,70.5,-100.00,NW,315,4.0,7.0,77,0.00,,,0.00,959.0,meteohub,2013-04-15 19:18:00,
2013-04-15 09:23:00,78.6,70.9,-100.00,NE,45,7.0,7.0,77,0.00,,,0.00,959.0,meteohub,2013-04-15 19:23:00,
2013-04-15 09:29:00,78.8,70.5,-100.00,North,0,4.0,7.0,76,0.00,,,0.00,959.0,meteohub,2013-04-15 19:29:00,
2013-04-15 09:34:00,79.0,70.7,-100.00,NE,45,4.0,7.0,76,0.00,,,0.00,959.0,meteohub,2013-04-15 19:34:00,
2013-04-15 09:39:00,79.3,70.7,-100.00,NE,45,6.0,8.0,75,0.00,,,0.00,959.0,meteohub,2013-04-15 19:39:00,
2013-04-15 09:44:00,79.9,70.9,-100.00,West,270,3.0,8.0,74,0.00,,,0.00,959.0,meteohub,2013-04-15 19:44:00,
2013-04-15 09:49:00,80.1,70.7,-100.00,NE,45,3.0,8.0,73,0.00,,,0.00,959.0,meteohub,2013-04-15 19:49:00,
2013-04-15 09:56:00,80.6,70.7,-100.00,East,90,8.0,8.0,72,0.00,,,0.00,959.0,meteohub,2013-04-15 19:56:00,
2013-04-15 09:57:00,80.6,70.7,-100.00,West,270,4.0,8.0,72,0.00,,,0.00,959.0,meteohub,2013-04-15 19:57:00,
2013-04-15 09:58:00,80.6,70.7,-100.00,NE,45,6.0,8.0,72,0.00,,,0.00,959.0,meteohub,2013-04-15 19:58:00,
2013-04-15 09:59:00,80.6,70.7,-100.00,NE,45,8.0,8.0,72,0.00,,,0.00,959.0,meteohub,2013-04-15 19:59:00,
2013-04-15 10:02:00,80.6,70.7,-100.00,North,0,4.0,8.0,72,0.00,,,0.00,959.0,meteohub,2013-04-15 20:02:00,
2013-04-15 10:03:00,80.6,70.7,-100.00,North,0,4.0,8.0,72,0.00,,,0.00,995.0,meteohub,2013-04-15 20:03:00,
2013-04-15 10:04:00,80.6,70.3,-100.00,NE,45,7.0,8.0,71,0.00,,,0.00,995.0,meteohub,2013-04-15 20:04:00,
2013-04-15 10:09:00,80.8,70.9,-100.00,SW,225,6.0,8.0,72,0.00,,,0.00,995.0,meteohub,2013-04-15 20:09:00,
2013-04-15 10:12:00,81.0,71.1,-100.00,NW,315,5.0,8.0,72,0.00,,,0.00,995.0,meteohub,2013-04-15 20:12:00,
2013-04-15 10:17:00,81.1,71.2,-100.00,North,0,5.0,8.0,72,0.00,,,0.00,995.0,meteohub,2013-04-15 20:17:00,
2013-04-15 10:23:00,81.3,71.4,-100.00,NNW,338,7.0,8.0,72,0.00,,,0.00,995.0,meteohub,2013-04-15 20:23:00,
2013-04-15 10:28:00,81.5,71.6,-100.00,NE,45,6.0,7.0,72,0.00,,,0.00,995.0,meteohub,2013-04-15 20:28:00,
2013-04-15 10:33:00,81.5,71.6,-100.00,North,0,4.0,7.0,72,0.00,,,0.00,995.0,meteohub,2013-04-15 20:33:00,
2013-04-15 10:38:00,81.7,71.8,-100.00,NW,315,5.0,7.0,72,0.00,,,0.00,995.0,meteohub,2013-04-15 20:38:00,
2013-04-15 10:43:00,81.9,72.0,-100.00,North,0,5.0,7.0,72,0.00,,,0.00,995.0,meteohub,2013-04-15 20:43:00,
2013-04-15 10:48:00,82.2,72.0,-100.00,NE,45,6.0,8.0,71,0.00,,,0.00,995.0,meteohub,2013-04-15 20:48:00,
2013-04-15 10:53:00,82.2,72.0,-100.00,NE,45,5.0,8.0,71,0.00,,,0.00,995.0,meteohub,2013-04-15 20:53:00,
2013-04-15 10:58:00,82.4,72.5,-100.00,East,90,4.0,8.0,72,0.00,,,0.00,995.0,meteohub,2013-04-15 20:58:00,
2013-04-15 11:04:00,82.6,72.1,-100.00,NE,45,8.0,8.0,71,0.00,,,0.00,995.0,meteohub,2013-04-15 21:04:00,
2013-04-15 11:09:00,82.8,72.3,-100.00,NW,315,5.0,10.0,71,0.00,,,0.00,995.0,meteohub,2013-04-15 21:09:00,
2013-04-15 11:14:00,83.1,72.7,-100.00,North,0,7.0,10.0,71,0.00,,,0.00,995.0,meteohub,2013-04-15 21:14:00,
2013-04-15 11:19:00,83.5,73.0,-100.00,NNE,23,8.0,10.0,71,0.00,,,0.00,995.0,meteohub,2013-04-15 21:19:00,
2013-04-15 11:25:00,83.5,72.7,-100.00,NE,45,4.0,8.0,70,0.00,,,0.00,995.0,meteohub,2013-04-15 21:25:00,
2013-04-15 11:30:00,83.8,73.0,-100.00,NW,315,4.0,8.0,70,0.00,,,0.00,995.0,meteohub,2013-04-15 21:30:00,
2013-04-15 11:35:00,84.0,73.2,-100.00,North,0,4.0,8.0,70,0.00,,,0.00,995.0,meteohub,2013-04-15 21:35:00,
2013-04-15 11:40:00,84.2,72.9,-100.00,NE,45,8.0,8.0,69,0.00,,,0.00,995.0,meteohub,2013-04-15 21:40:00,
2013-04-15 11:45:00,84.0,72.3,-100.00,North,0,7.0,8.0,68,0.00,,,0.00,995.0,meteohub,2013-04-15 21:45:00,
2013-04-15 11:50:00,84.2,72.9,-100.00,NW,315,7.0,11.0,69,0.00,,,0.00,995.0,meteohub,2013-04-15 21:50:00,
2013-04-15 11:55:00,84.6,73.2,-100.00,NW,315,5.0,11.0,69,0.00,,,0.00,995.0,meteohub,2013-04-15 21:55:00,
2013-04-15 12:00:00,84.6,72.9,-100.00,NE,45,6.0,8.0,68,0.00,,,0.00,995.0,meteohub,2013-04-15 22:00:00,
2013-04-15 12:06:00,84.6,72.9,-100.00,NE,45,6.0,8.0,68,0.00,,,0.00,995.0,meteohub,2013-04-15 22:06:00,
2013-04-15 12:11:00,84.6,72.9,-100.00,NW,315,6.0,8.0,68,0.00,,,0.00,995.0,meteohub,2013-04-15 22:11:00,
2013-04-15 12:16:00,84.7,73.0,-100.00,NE,45,5.0,9.0,68,0.00,,,0.00,995.0,meteohub,2013-04-15 22:16:00,
2013-04-15 12:22:00,85.1,73.4,-100.00,North,0,8.0,9.0,68,0.00,,,0.00,995.0,meteohub,2013-04-15 22:22:00,
2013-04-15 12:27:00,85.1,72.9,-100.00,North,0,6.0,9.0,67,0.00,,,0.00,995.0,meteohub,2013-04-15 22:27:00,
2013-04-15 12:32:00,85.1,72.9,-100.00,North,0,6.0,8.0,67,0.00,,,0.00,995.0,meteohub,2013-04-15 22:32:00,
2013-04-15 12:37:00,85.6,73.0,-100.00,North,0,7.0,9.0,66,0.00,,,0.00,995.0,meteohub,2013-04-15 22:37:00,
2013-04-15 12:42:00,85.8,72.7,-100.00,NW,315,5.0,9.0,65,0.00,,,0.00,995.0,meteohub,2013-04-15 22:42:00,
2013-04-15 12:47:00,86.0,72.9,-100.00,NE,45,5.0,8.0,65,0.00,,,0.00,995.0,meteohub,2013-04-15 22:47:00,
2013-04-15 12:52:00,86.0,72.9,-100.00,North,0,4.0,10.0,65,0.00,,,0.00,995.0,meteohub,2013-04-15 22:52:00,
2013-04-15 12:57:00,85.6,72.5,-100.00,North,0,6.0,10.0,65,0.00,,,0.00,995.0,meteohub,2013-04-15 22:57:00,
2013-04-15 13:02:00,84.7,71.6,-100.00,North,0,4.0,10.0,65,0.00,,,0.00,995.0,meteohub,2013-04-15 23:02:00,
2013-04-15 13:07:00,84.7,73.0,-100.00,ENE,68,4.0,8.0,68,0.00,,,0.00,995.0,meteohub,2013-04-15 23:07:00,
2013-04-15 13:12:00,85.1,72.9,-100.00,NE,45,9.0,9.0,67,0.00,,,0.00,995.0,meteohub,2013-04-15 23:12:00,
2013-04-15 13:17:00,85.5,73.8,-100.00,NE,45,3.0,9.0,68,0.00,,,0.00,995.0,meteohub,2013-04-15 23:17:00,
2013-04-15 13:22:00,86.0,73.8,-100.00,North,0,5.0,9.0,67,0.00,,,0.00,995.0,meteohub,2013-04-15 23:22:00,
2013-04-15 13:27:00,86.7,73.9,-100.00,North,0,4.0,9.0,66,0.00,,,0.00,995.0,meteohub,2013-04-15 23:27:00,
2013-04-15 13:32:00,86.7,73.6,-100.00,NNE,23,4.0,8.0,65,0.00,,,0.00,995.0,meteohub,2013-04-15 23:32:00,
2013-04-15 13:37:00,86.7,73.6,-100.00,North,0,8.0,9.0,65,0.00,,,0.00,995.0,meteohub,2013-04-15 23:37:00,
2013-04-15 13:42:00,86.4,73.2,-100.00,North,0,6.0,9.0,65,0.00,,,0.00,995.0,meteohub,2013-04-15 23:42:00,
2013-04-15 13:47:00,86.4,73.2,-100.00,North,0,6.0,9.0,65,0.00,,,0.00,995.0,meteohub,2013-04-15 23:47:00,
2013-04-15 13:52:00,86.5,73.4,-100.00,WNW,293,6.0,9.0,65,0.00,,,0.00,995.0,meteohub,2013-04-15 23:52:00,
2013-04-15 13:57:00,86.7,73.6,-100.00,North,0,8.0,8.0,65,0.00,,,0.00,995.0,meteohub,2013-04-15 23:57:00,
2013-04-15 14:02:00,86.5,72.9,-100.00,NE,45,8.0,9.0,64,0.00,,,0.00,995.0,meteohub,2013-04-16 00:02:00,
2013-04-15 14:07:00,86.5,72.9,-100.00,North,0,6.0,9.0,64,0.00,,,0.00,995.0,meteohub,2013-04-16 00:07:00,
2013-04-15 14:12:00,86.7,72.7,-100.00,North,0,5.0,9.0,63,0.00,,,0.00,995.0,meteohub,2013-04-16 00:12:00,
2013-04-15 14:17:00,86.7,72.1,-100.00,SE,135,4.0,8.0,62,0.00,,,0.00,995.0,meteohub,2013-04-16 00:17:00,
2013-04-15 14:22:00,86.9,72.9,-100.00,NE,45,5.0,8.0,63,0.00,,,0.00,995.0,meteohub,2013-04-16 00:22:00,
2013-04-15 14:27:00,87.4,72.9,-100.00,North,0,6.0,7.0,62,0.00,,,0.00,995.0,meteohub,2013-04-16 00:27:00,
2013-04-15 14:32:00,87.4,72.9,-100.00,NE,45,5.0,7.0,62,0.00,,,0.00,995.0,meteohub,2013-04-16 00:32:00,
2013-04-15 14:37:00,87.3,72.7,-100.00,East,90,4.0,7.0,62,0.00,,,0.00,995.0,meteohub,2013-04-16 00:37:00,
2013-04-15 14:42:00,87.3,72.7,-100.00,SE,135,8.0,8.0,62,0.00,,,0.00,995.0,meteohub,2013-04-16 00:42:00,
2013-04-15 14:47:00,87.1,72.9,-100.00,North,0,6.0,9.0,63,0.00,,,0.00,995.0,meteohub,2013-04-16 00:47:00,
2013-04-15 14:52:00,87.1,72.9,-100.00,NW,315,5.0,9.0,63,0.00,,,0.00,995.0,meteohub,2013-04-16 00:52:00,
2013-04-15 14:57:00,87.1,73.4,-100.00,NE,45,4.0,9.0,64,0.00,,,0.00,995.0,meteohub,2013-04-16 00:57:00,
2013-04-15 15:02:00,87.4,73.2,-100.00,North,0,7.0,8.0,63,0.00,,,0.00,995.0,meteohub,2013-04-16 01:02:00,
2013-04-15 15:07:00,87.6,73.4,-100.00,NE,45,9.0,9.0,63,0.00,,,0.00,995.0,meteohub,2013-04-16 01:07:00,
2013-04-15 15:12:00,87.3,73.0,-100.00,NW,315,4.0,9.0,63,0.00,,,0.00,995.0,meteohub,2013-04-16 01:12:00,
2013-04-15 15:17:00,86.9,72.9,-100.00,North,0,4.0,9.0,63,0.00,,,0.00,995.0,meteohub,2013-04-16 01:17:00,
2013-04-15 15:22:00,86.5,72.5,-100.00,North,0,6.0,9.0,63,0.00,,,0.00,995.0,meteohub,2013-04-16 01:22:00,
2013-04-15 15:27:00,86.2,72.5,-100.00,North,0,9.0,10.0,64,0.00,,,0.00,995.0,meteohub,2013-04-16 01:27:00,
2013-04-15 15:32:00,86.4,73.2,-100.00,NE,45,4.0,10.0,65,0.00,,,0.00,995.0,meteohub,2013-04-16 01:32:00,
2013-04-15 15:37:00,86.2,72.1,-100.00,NE,45,5.0,9.0,63,0.00,,,0.00,995.0,meteohub,2013-04-16 01:37:00,
2013-04-15 15:42:00,86.9,73.2,-100.00,North,0,4.0,9.0,64,0.00,,,0.00,995.0,meteohub,2013-04-16 01:42:00,
2013-04-15 15:47:00,87.3,73.0,-100.00,North,0,6.0,7.0,63,0.00,,,0.00,995.0,meteohub,2013-04-16 01:47:00,
2013-04-15 15:52:00,87.1,72.5,-100.00,North,0,7.0,7.0,62,0.00,,,0.00,995.0,meteohub,2013-04-16 01:52:00,
2013-04-15 15:57:00,86.5,72.5,-100.00,North,0,5.0,7.0,63,0.00,,,0.00,995.0,meteohub,2013-04-16 01:57:00,
2013-04-15 16:02:00,86.0,72.3,-100.00,NE,45,4.0,7.0,64,0.00,,,0.00,995.0,meteohub,2013-04-16 02:02:00,
2013-04-15 16:07:00,85.3,72.1,-100.00,NE,45,4.0,8.0,65,0.00,,,0.00,995.0,meteohub,2013-04-16 02:07:00,
2013-04-15 16:12:00,85.3,72.7,-100.00,NW,315,2.0,8.0,66,0.00,,,0.00,995.0,meteohub,2013-04-16 02:12:00,
2013-04-15 16:17:00,85.1,72.5,-100.00,NE,45,7.0,7.0,66,0.00,,,0.00,995.0,meteohub,2013-04-16 02:17:00,
2013-04-15 16:22:00,84.4,71.8,-100.00,NE,45,5.0,8.0,66,0.00,,,0.00,995.0,meteohub,2013-04-16 02:22:00,
2013-04-15 16:27:00,84.2,72.0,-100.00,North,0,8.0,8.0,67,0.00,,,0.00,995.0,meteohub,2013-04-16 02:27:00,
2013-04-15 16:32:00,84.2,72.0,-100.00,East,90,3.0,8.0,67,0.00,,,0.00,995.0,meteohub,2013-04-16 02:32:00,
2013-04-15 16:37:00,84.4,72.1,-100.00,North,0,6.0,8.0,67,0.00,,,0.00,995.0,meteohub,2013-04-16 02:37:00,
2013-04-15 16:42:00,84.0,71.4,-100.00,NW,315,6.0,8.0,66,0.00,,,0.00,995.0,meteohub,2013-04-16 02:42:00,
2013-04-15 16:47:00,83.5,71.4,-100.00,NW,315,4.0,8.0,67,0.00,,,0.00,995.0,meteohub,2013-04-16 02:47:00,
2013-04-15 16:52:00,83.3,71.6,-100.00,North,0,4.0,8.0,68,0.00,,,0.00,995.0,meteohub,2013-04-16 02:52:00,
2013-04-15 16:57:00,83.1,71.1,-100.00,NE,45,3.0,8.0,67,0.00,,,0.00,995.0,meteohub,2013-04-16 02:57:00,
2013-04-15 17:02:00,82.8,71.1,-100.00,NE,45,3.0,6.0,68,0.00,,,0.00,995.0,meteohub,2013-04-16 03:02:00,
2013-04-15 17:07:00,82.8,71.6,-100.00,North,0,4.0,5.0,69,0.00,,,0.00,995.0,meteohub,2013-04-16 03:07:00,
2013-04-15 17:12:00,82.6,71.4,-100.00,NE,45,2.0,5.0,69,0.00,,,0.00,995.0,meteohub,2013-04-16 03:12:00,
2013-04-15 17:17:00,82.2,71.1,-100.00,North,0,5.0,5.0,69,0.00,,,0.00,995.0,meteohub,2013-04-16 03:17:00,
2013-04-15 17:22:00,81.3,70.5,-100.00,NE,45,4.0,5.0,70,0.00,,,0.00,995.0,meteohub,2013-04-16 03:22:00,
2013-04-15 17:27:00,80.4,70.2,-100.00,NW,315,4.0,5.0,71,0.00,,,0.00,995.0,meteohub,2013-04-16 03:27:00,
2013-04-15 17:32:00,79.9,70.0,-100.00,North,0,5.0,5.0,72,0.00,,,0.00,995.0,meteohub,2013-04-16 03:32:00,
2013-04-15 17:37:00,79.5,70.2,-100.00,ENE,68,2.0,5.0,73,0.00,,,0.00,958.0,meteohub,2013-04-16 03:37:00,
2013-04-15 17:42:00,79.2,70.2,-100.00,NW,315,2.0,5.0,74,0.00,,,0.00,958.0,meteohub,2013-04-16 03:42:00,
2013-04-15 17:47:00,78.8,70.2,-100.00,NNE,23,3.0,5.0,75,0.00,,,0.00,958.0,meteohub,2013-04-16 03:47:00,
2013-04-15 17:52:00,78.6,70.0,-100.00,NE,45,4.0,4.0,75,0.00,,,0.00,958.0,meteohub,2013-04-16 03:52:00,
2013-04-15 17:57:00,78.4,70.2,-100.00,North,0,4.0,4.0,76,0.00,,,0.00,958.0,meteohub,2013-04-16 03:57:00,
2013-04-15 18:00:00,78.3,70.0,-100.00,NE,45,4.0,4.0,76,0.00,,,0.00,958.0,meteohub,2013-04-16 04:00:00,
2013-04-15 18:01:00,78.3,70.0,-100.00,NNE,23,4.0,4.0,76,0.00,,,0.00,958.0,meteohub,2013-04-16 04:01:00,
2013-04-15 18:02:00,78.3,70.0,-100.00,NNE,23,4.0,4.0,76,0.00,,,0.00,958.0,meteohub,2013-04-16 04:02:00,
2013-04-15 18:05:00,78.1,70.0,-100.00,North,0,3.0,4.0,76,0.00,,,0.00,958.0,meteohub,2013-04-16 04:05:00,
2013-04-15 18:10:00,77.7,70.0,-100.00,North,0,2.0,4.0,77,0.00,,,0.00,958.0,meteohub,2013-04-16 04:10:00,
2013-04-15 18:15:00,77.7,70.0,-100.00,NW,315,2.0,4.0,77,0.00,,,0.00,958.0,meteohub,2013-04-16 04:15:00,
2013-04-15 18:20:00,77.5,69.8,-100.00,North,0,2.0,4.0,77,0.00,,,0.00,958.0,meteohub,2013-04-16 04:20:00,
2013-04-15 18:25:00,77.5,70.2,-100.00,North,0,2.0,4.0,78,0.00,,,0.00,958.0,meteohub,2013-04-16 04:25:00,
2013-04-15 18:31:00,77.4,70.0,-100.00,North,0,2.0,3.0,78,0.00,,,0.00,958.0,meteohub,2013-04-16 04:31:00,
2013-04-15 18:36:00,77.4,70.0,-100.00,North,0,2.0,2.0,78,0.00,,,0.00,958.0,meteohub,2013-04-16 04:36:00,
2013-04-15 18:41:00,77.2,69.8,-100.00,NE,45,2.0,2.0,78,0.00,,,0.00,958.0,meteohub,2013-04-16 04:41:00,
2013-04-15 18:46:00,77.0,69.6,-100.00,North,0,2.0,2.0,78,0.00,,,0.00,958.0,meteohub,2013-04-16 04:46:00,
2013-04-15 18:51:00,77.0,70.0,-100.00,North,0,1.0,2.0,79,0.00,,,0.00,958.0,meteohub,2013-04-16 04:51:00,
2013-04-15 18:56:00,76.8,69.8,-100.00,East,90,2.0,2.0,79,0.00,,,0.00,958.0,meteohub,2013-04-16 04:56:00,
2013-04-15 19:01:00,76.6,69.3,-100.00,East,90,2.0,2.0,78,0.00,,,0.00,958.0,meteohub,2013-04-16 05:01:00,
2013-04-15 19:06:00,76.6,69.3,-100.00,East,90,2.0,2.0,78,0.00,,,0.00,958.0,meteohub,2013-04-16 05:06:00,
2013-04-15 19:12:00,76.6,69.6,-100.00,East,90,0.0,2.0,79,0.00,,,0.00,958.0,meteohub,2013-04-16 05:12:00,
2013-04-15 19:17:00,76.6,69.6,-100.00,East,90,1.0,2.0,79,0.00,,,0.00,958.0,meteohub,2013-04-16 05:17:00,
2013-04-15 19:22:00,76.6,69.6,-100.00,East,90,0.0,2.0,79,0.00,,,0.00,958.0,meteohub,2013-04-16 05:22:00,
2013-04-15 19:27:00,76.6,69.6,-100.00,East,90,0.0,1.0,79,0.00,,,0.00,958.0,meteohub,2013-04-16 05:27:00,
2013-04-15 19:32:00,76.6,69.6,-100.00,East,90,0.0,1.0,79,0.00,,,0.00,958.0,meteohub,2013-04-16 05:32:00,
2013-04-15 19:37:00,76.5,69.4,-100.00,East,90,1.0,1.0,79,0.00,,,0.00,958.0,meteohub,2013-04-16 05:37:00,
2013-04-15 19:42:00,76.5,69.8,-100.00,East,90,0.0,1.0,80,0.00,,,0.00,958.0,meteohub,2013-04-16 05:42:00,
2013-04-15 19:47:00,76.3,69.6,-100.00,East,90,0.0,1.0,80,0.00,,,0.00,958.0,meteohub,2013-04-16 05:47:00,
2013-04-15 19:52:00,76.3,69.6,-100.00,East,90,0.0,1.0,80,0.00,,,0.00,958.0,meteohub,2013-04-16 05:52:00,
2013-04-15 19:57:00,76.1,69.4,-100.00,East,90,0.0,0.0,80,0.00,,,0.00,958.0,meteohub,2013-04-16 05:57:00,
2013-04-15 20:02:00,75.9,69.3,-100.00,East,90,1.0,0.0,80,0.00,,,0.00,958.0,meteohub,2013-04-16 06:02:00,
2013-04-15 20:07:00,75.7,69.4,-100.00,East,90,0.0,1.0,81,0.00,,,0.00,958.0,meteohub,2013-04-16 06:07:00,
2013-04-15 20:12:00,75.6,69.3,-100.00,East,90,0.0,1.0,81,0.00,,,0.00,958.0,meteohub,2013-04-16 06:12:00,
2013-04-15 20:17:00,75.6,69.6,-100.00,South,180,1.0,1.0,82,0.00,,,0.00,958.0,meteohub,2013-04-16 06:17:00,
2013-04-15 20:22:00,75.4,69.1,-100.00,South,180,1.0,1.0,81,0.00,,,0.00,958.0,meteohub,2013-04-16 06:22:00,
2013-04-15 20:27:00,75.2,68.9,-100.00,South,180,0.0,1.0,81,0.00,,,0.00,958.0,meteohub,2013-04-16 06:27:00,
2013-04-15 20:32:00,75.2,68.9,-100.00,South,180,0.0,1.0,81,0.00,,,0.00,958.0,meteohub,2013-04-16 06:32:00,
2013-04-15 20:37:00,75.0,68.7,-100.00,South,180,1.0,1.0,81,0.00,,,0.00,958.0,meteohub,2013-04-16 06:37:00,
2013-04-15 20:42:00,74.8,68.5,-100.00,South,180,0.0,1.0,81,0.00,,,0.00,958.0,meteohub,2013-04-16 06:42:00,
2013-04-15 20:47:00,74.7,68.4,-100.00,SW,225,0.0,1.0,81,0.00,,,0.00,958.0,meteohub,2013-04-16 06:47:00,
2013-04-15 20:52:00,74.7,68.4,-100.00,North,0,1.0,1.0,81,0.00,,,0.00,958.0,meteohub,2013-04-16 06:52:00,
2013-04-15 20:57:00,74.5,68.5,-100.00,North,0,1.0,1.0,82,0.00,,,0.00,958.0,meteohub,2013-04-16 06:57:00,
2013-04-15 21:02:00,74.5,68.5,-100.00,North,0,2.0,2.0,82,0.00,,,0.00,958.0,meteohub,2013-04-16 07:02:00,
2013-04-15 21:07:00,74.5,68.5,-100.00,North,0,1.0,2.0,82,0.00,,,0.00,958.0,meteohub,2013-04-16 07:07:00,
2013-04-15 21:12:00,74.5,68.5,-100.00,NE,45,2.0,2.0,82,0.00,,,0.00,958.0,meteohub,2013-04-16 07:12:00,
2013-04-15 21:17:00,74.7,68.7,-100.00,NE,45,0.0,2.0,82,0.00,,,0.00,958.0,meteohub,2013-04-16 07:17:00,
2013-04-15 21:22:00,74.7,68.7,-100.00,NE,45,0.0,2.0,82,0.00,,,0.00,958.0,meteohub,2013-04-16 07:22:00,
2013-04-15 21:27:00,74.5,67.8,-100.00,NE,45,0.0,2.0,80,0.00,,,0.00,958.0,meteohub,2013-04-16 07:27:00,
2013-04-15 21:32:00,74.5,67.8,-100.00,North,0,1.0,1.0,80,0.00,,,0.00,958.0,meteohub,2013-04-16 07:32:00,
2013-04-15 21:37:00,74.5,67.8,-100.00,North,0,2.0,2.0,80,0.00,,,0.00,958.0,meteohub,2013-04-16 07:37:00,
2013-04-15 21:42:00,74.5,67.5,-100.00,North,0,2.0,2.0,79,0.00,,,0.00,958.0,meteohub,2013-04-16 07:42:00,
2013-04-15 21:47:00,74.3,67.6,-100.00,North,0,1.0,2.0,80,0.00,,,0.00,958.0,meteohub,2013-04-16 07:47:00,
2013-04-15 21:52:00,74.1,67.6,-100.00,SW,225,2.0,2.0,80,0.00,,,0.00,958.0,meteohub,2013-04-16 07:52:00,
2013-04-15 21:57:00,74.1,67.6,-100.00,SW,225,1.0,2.0,80,0.00,,,0.00,958.0,meteohub,2013-04-16 07:57:00,
2013-04-15 22:02:00,74.1,67.6,-100.00,SW,225,2.0,2.0,80,0.00,,,0.00,958.0,meteohub,2013-04-16 08:02:00,
2013-04-15 22:07:00,74.1,68.0,-100.00,SW,225,1.0,2.0,81,0.00,,,0.00,995.0,meteohub,2013-04-16 08:07:00,
2013-04-15 22:12:00,74.1,68.0,-100.00,SW,225,2.0,2.0,81,0.00,,,0.00,995.0,meteohub,2013-04-16 08:12:00,
2013-04-15 22:17:00,74.1,68.0,-100.00,South,180,1.0,2.0,81,0.00,,,0.00,995.0,meteohub,2013-04-16 08:17:00,
2013-04-15 22:22:00,74.1,68.2,-100.00,SW,225,1.0,2.0,82,0.00,,,0.00,995.0,meteohub,2013-04-16 08:22:00,
2013-04-15 22:27:00,74.1,68.0,-100.00,SW,225,1.0,2.0,81,0.00,,,0.00,995.0,meteohub,2013-04-16 08:27:00,
2013-04-15 22:32:00,74.1,68.0,-100.00,SW,225,2.0,2.0,81,0.00,,,0.00,995.0,meteohub,2013-04-16 08:32:00,
2013-04-15 22:37:00,74.1,68.0,-100.00,SW,225,2.0,2.0,81,0.00,,,0.00,995.0,meteohub,2013-04-16 08:37:00,
2013-04-15 22:42:00,74.1,68.0,-100.00,SW,225,2.0,2.0,81,0.00,,,0.00,995.0,meteohub,2013-04-16 08:42:00,
2013-04-15 22:47:00,74.1,68.0,-100.00,SW,225,2.0,2.0,81,0.00,,,0.00,995.0,meteohub,2013-04-16 08:47:00,
2013-04-15 22:52:00,73.9,67.8,-100.00,SW,225,2.0,3.0,81,0.00,,,0.00,995.0,meteohub,2013-04-16 08:52:00,
2013-04-15 22:57:00,73.9,67.8,-100.00,SW,225,2.0,3.0,81,0.00,,,0.00,995.0,meteohub,2013-04-16 08:57:00,
2013-04-15 23:02:00,73.8,67.6,-100.00,SW,225,2.0,3.0,81,0.00,,,0.00,995.0,meteohub,2013-04-16 09:02:00,
2013-04-15 23:07:00,73.6,67.5,-100.00,SW,225,1.0,2.0,81,0.00,,,0.00,995.0,meteohub,2013-04-16 09:07:00,
2013-04-15 23:12:00,73.4,67.3,-100.00,SW,225,0.0,2.0,81,0.00,,,0.00,995.0,meteohub,2013-04-16 09:12:00,
2013-04-15 23:17:00,73.2,66.7,-100.00,SW,225,1.0,2.0,80,0.00,,,0.00,995.0,meteohub,2013-04-16 09:17:00,
2013-04-15 23:22:00,72.9,66.7,-100.00,SW,225,1.0,1.0,81,0.00,,,0.00,995.0,meteohub,2013-04-16 09:22:00,
2013-04-15 23:27:00,72.7,66.6,-100.00,SW,225,1.0,1.0,81,0.00,,,0.00,995.0,meteohub,2013-04-16 09:27:00,
2013-04-15 23:32:00,72.7,66.6,-100.00,SW,225,2.0,2.0,81,0.00,,,0.00,995.0,meteohub,2013-04-16 09:32:00,
2013-04-15 23:37:00,72.9,66.7,-100.00,SW,225,2.0,2.0,81,0.00,,,0.00,995.0,meteohub,2013-04-16 09:37:00,
2013-04-15 23:42:00,73.0,66.9,-100.00,SW,225,2.0,2.0,81,0.00,,,0.00,995.0,meteohub,2013-04-16 09:42:00,
2013-04-15 23:47:00,73.2,67.1,-100.00,SW,225,1.0,2.0,81,0.00,,,0.00,995.0,meteohub,2013-04-16 09:47:00,
2013-04-15 23:52:00,73.2,66.7,-100.00,SW,225,2.0,2.0,80,0.00,,,0.00,995.0,meteohub,2013-04-16 09:52:00,
2013-04-15 23:57:00,73.2,66.7,-100.00,SW,225,2.0,2.0,80,0.00,,,0.00,995.0,meteohub,2013-04-16 09:57:00,